Time;durP1;ratioP1;P1;durP2;ratioP2;P2;SDS_P1;SDS_P2;PMS_P1;PMS_P2;Temp;Humidity;BMP_temperature;BMP_pressure;BME280_temperature;BME280_humidity;BME280_pressure;Samples;Min_cycle;Max_cycle;Signal;HPM_P1;HPM_P2
2020/12/17 00:00:18;;;;;;;7.93;4.13;;;;;;;;;;5067413;28;20418;-55
2020/12/17 00:02:44;;;;;;;5.65;4.00;;;;;;;;;;5066594;28;20467;-56
2020/12/17 00:05:10;;;;;;;6.68;3.90;;;;;;;;;;5065694;28;20091;-54
2020/12/17 00:07:37;;;;;;;6.40;4.13;;;;;;;;;;5064860;28;20453;-53
2020/12/17 00:10:04;;;;;;;6.97;3.80;;;;;;;;;;5065999;28;20045;-52
2020/12/17 00:12:33;;;;;;;6.90;4.45;;;;;;;;;;5066517;28;20108;-53
2020/12/17 00:14:59;;;;;;;7.15;4.35;;;;;;;;;;5066160;28;20269;-53
2020/12/17 00:17:25;;;;;;;5.97;4.00;;;;;;;;;;5066228;28;20512;-54
2020/12/17 00:19:51;;;;;;;7.13;4.13;;;;;;;;;;5066280;28;20137;-54
2020/12/17 00:22:17;;;;;;;6.45;4.32;;;;;;;;;;5066109;28;20079;-54
2020/12/17 00:24:43;;;;;;;6.50;4.28;;;;;;;;;;5065611;28;20328;-53
2020/12/17 00:27:09;;;;;;;5.18;3.33;;;;;;;;;;5085520;28;20032;-51
2020/12/17 00:29:36;;;;;;;6.68;3.83;;;;;;;;;;5085414;28;20024;-53
2020/12/17 00:32:03;;;;;;;5.25;3.60;;;;;;;;;;5086032;28;20622;-53
2020/12/17 00:34:29;;;;;;;5.72;3.72;;;;;;;;;;5085933;28;20132;-53
2020/12/17 00:36:55;;;;;;;6.25;3.80;;;;;;;;;;5084522;28;20054;-53
2020/12/17 00:39:23;;;;;;;6.97;4.00;;;;;;;;;;5086906;28;20028;-53
2020/12/17 00:41:49;;;;;;;6.53;3.65;;;;;;;;;;5086526;28;20332;-53
2020/12/17 00:44:15;;;;;;;5.38;3.63;;;;;;;;;;5075074;28;20078;-52
2020/12/17 00:46:41;;;;;;;5.13;3.50;;;;;;;;;;5065448;28;20215;-53
2020/12/17 00:49:08;;;;;;;5.20;3.38;;;;;;;;;;5064778;28;20689;-52
2020/12/17 00:51:34;;;;;;;5.47;3.08;;;;;;;;;;5064660;28;20036;-53
2020/12/17 00:54:01;;;;;;;3.35;2.13;;;;;;;;;;5063943;28;20027;-53
2020/12/17 00:56:27;;;;;;;4.60;2.35;;;;;;;;;;5065983;28;20029;-54
2020/12/17 00:58:54;;;;;;;4.50;2.90;;;;;;;;;;5065078;28;20029;-54
2020/12/17 01:01:20;;;;;;;4.10;2.80;;;;;;;;;;5066118;28;20028;-53
2020/12/17 01:03:46;;;;;;;4.30;2.67;;;;;;;;;;5065347;28;20035;-54
2020/12/17 01:06:12;;;;;;;4.95;3.00;;;;;;;;;;5064747;28;20517;-54
2020/12/17 01:08:38;;;;;;;4.70;3.13;;;;;;;;;;5065216;28;20380;-53
2020/12/17 01:11:04;;;;;;;6.20;3.97;;;;;;;;;;5064817;28;20036;-53
2020/12/17 01:13:30;;;;;;;6.85;4.18;;;;;;;;;;5065037;28;20028;-53
2020/12/17 01:15:56;;;;;;;5.80;4.13;;;;;;;;;;5065845;28;20367;-53
2020/12/17 01:18:22;;;;;;;5.53;3.88;;;;;;;;;;5066067;28;20029;-54
2020/12/17 01:20:48;;;;;;;5.53;3.78;;;;;;;;;;5067269;28;20036;-54
2020/12/17 01:23:14;;;;;;;5.45;4.00;;;;;;;;;;5066233;28;20446;-53
2020/12/17 01:25:40;;;;;;;7.65;4.28;;;;;;;;;;5066381;28;20382;-53
2020/12/17 01:28:10;;;;;;;7.25;3.80;;;;;;;;;;5065423;28;20529;-53
2020/12/17 01:30:36;;;;;;;5.68;3.63;;;;;;;;;;5066791;28;20025;-53
2020/12/17 01:33:02;;;;;;;4.95;3.53;;;;;;;;;;5066388;28;20608;-54
2020/12/17 01:35:28;;;;;;;5.28;3.55;;;;;;;;;;5086532;28;20581;-52
2020/12/17 01:37:54;;;;;;;5.15;3.45;;;;;;;;;;5086481;28;20505;-53
2020/12/17 01:40:20;;;;;;;8.80;4.40;;;;;;;;;;5086470;28;20059;-53
2020/12/17 01:42:46;;;;;;;7.30;4.55;;;;;;;;;;5085576;28;20055;-53
2020/12/17 01:45:12;;;;;;;6.07;3.90;;;;;;;;;;5085741;28;20541;-53
2020/12/17 01:47:39;;;;;;;6.78;4.38;;;;;;;;;;5086138;28;20549;-54
2020/12/17 01:50:06;;;;;;;6.63;4.47;;;;;;;;;;5085461;28;20028;-53
2020/12/17 01:52:32;;;;;;;7.00;4.10;;;;;;;;;;5065491;28;20028;-53
2020/12/17 01:54:59;;;;;;;6.45;4.10;;;;;;;;;;5078797;28;20039;-53
2020/12/17 01:57:30;;;;;;;6.90;4.20;;;;;;;;;;5086353;28;20082;-54
2020/12/17 01:59:56;;;;;;;6.70;4.00;;;;;;;;;;5086306;28;20084;-53
2020/12/17 02:02:23;;;;;;;6.80;4.15;;;;;;;;;;5082198;28;20106;-54
2020/12/17 02:04:50;;;;;;;5.55;3.95;;;;;;;;;;5085542;28;20024;-54
2020/12/17 02:07:16;;;;;;;7.15;4.40;;;;;;;;;;5085595;28;20111;-52
2020/12/17 02:09:42;;;;;;;6.63;4.57;;;;;;;;;;5085973;28;20021;-53
2020/12/17 02:12:09;;;;;;;6.40;4.03;;;;;;;;;;5068739;28;20086;-53
2020/12/17 02:14:35;;;;;;;5.65;3.55;;;;;;;;;;5065871;28;20053;-54
2020/12/17 02:17:01;;;;;;;5.22;3.42;;;;;;;;;;5065855;28;20061;-54
2020/12/17 02:19:27;;;;;;;5.43;3.20;;;;;;;;;;5066402;28;20056;-53
2020/12/17 02:21:55;;;;;;;5.38;3.00;;;;;;;;;;5081801;28;20494;-56
2020/12/17 02:24:21;;;;;;;5.22;3.13;;;;;;;;;;5085961;28;20494;-56
2020/12/17 02:26:47;;;;;;;5.90;3.25;;;;;;;;;;5085975;28;20032;-56
2020/12/17 02:29:13;;;;;;;4.32;2.67;;;;;;;;;;5085957;28;20030;-56
2020/12/17 02:31:39;;;;;;;5.15;3.47;;;;;;;;;;5074629;28;20036;-56
2020/12/17 02:34:06;;;;;;;5.20;3.13;;;;;;;;;;5069324;28;20039;-56
2020/12/17 02:36:32;;;;;;;4.65;2.92;;;;;;;;;;5069542;28;20032;-56
2020/12/17 02:38:58;;;;;;;3.70;2.47;;;;;;;;;;5074771;28;20204;-56
2020/12/17 02:41:24;;;;;;;4.07;2.67;;;;;;;;;;5069818;28;20032;-53
2020/12/17 02:43:52;;;;;;;3.50;2.45;;;;;;;;;;5069396;28;20150;-54
2020/12/17 02:46:18;;;;;;;3.72;2.42;;;;;;;;;;5068650;28;20029;-53
2020/12/17 02:48:48;;;;;;;5.47;2.25;;;;;;;;;;5068929;28;20032;-54
2020/12/17 02:51:14;;;;;;;2.53;1.70;;;;;;;;;;5069023;28;20161;-53
2020/12/17 02:53:40;;;;;;;4.10;2.50;;;;;;;;;;5069336;28;20027;-54
2020/12/17 02:56:06;;;;;;;3.58;2.42;;;;;;;;;;5068794;28;20028;-53
2020/12/17 02:58:32;;;;;;;2.90;2.00;;;;;;;;;;5068791;28;20094;-53
2020/12/17 03:00:58;;;;;;;5.25;3.03;;;;;;;;;;5069559;28;20547;-54
2020/12/17 03:03:24;;;;;;;4.68;3.08;;;;;;;;;;5069057;28;20565;-53
2020/12/17 03:05:52;;;;;;;5.75;3.47;;;;;;;;;;5068492;28;20037;-54
2020/12/17 03:08:18;;;;;;;5.53;3.03;;;;;;;;;;5069326;28;20602;-53
2020/12/17 03:10:44;;;;;;;5.65;3.30;;;;;;;;;;5068990;28;20101;-53
2020/12/17 03:13:11;;;;;;;5.55;3.47;;;;;;;;;;5068852;28;20024;-53
2020/12/17 03:15:37;;;;;;;7.78;3.95;;;;;;;;;;5068872;28;20024;-54
2020/12/17 03:18:03;;;;;;;6.57;4.22;;;;;;;;;;5068092;28;20748;-54
2020/12/17 03:20:29;;;;;;;6.93;4.43;;;;;;;;;;5069570;28;20025;-54
2020/12/17 03:22:55;;;;;;;6.00;4.28;;;;;;;;;;5068654;28;20027;-54
2020/12/17 03:25:21;;;;;;;7.68;4.82;;;;;;;;;;5068524;28;20486;-54
2020/12/17 03:27:47;;;;;;;6.15;3.90;;;;;;;;;;5073456;28;20479;-52
2020/12/17 03:30:13;;;;;;;7.22;4.40;;;;;;;;;;5068477;28;20717;-53
2020/12/17 03:32:39;;;;;;;6.20;3.97;;;;;;;;;;5073697;28;20544;-54
2020/12/17 03:35:05;;;;;;;7.07;4.28;;;;;;;;;;5088370;28;20026;-54
2020/12/17 03:37:31;;;;;;;6.47;4.53;;;;;;;;;;5088398;28;20044;-52
2020/12/17 03:39:57;;;;;;;5.72;3.95;;;;;;;;;;5089020;28;20612;-53
2020/12/17 03:42:23;;;;;;;4.82;3.72;;;;;;;;;;5088087;28;20028;-53
2020/12/17 03:44:49;;;;;;;6.72;4.38;;;;;;;;;;5088026;28;20039;-54
2020/12/17 03:47:15;;;;;;;5.90;4.45;;;;;;;;;;5077551;28;20077;-53
2020/12/17 03:49:41;;;;;;;7.07;4.30;;;;;;;;;;5067212;28;20032;-54
2020/12/17 03:52:07;;;;;;;8.30;4.88;;;;;;;;;;5074287;28;20387;-54
2020/12/17 03:54:33;;;;;;;5.90;4.30;;;;;;;;;;5068465;28;20032;-54
2020/12/17 03:56:59;;;;;;;6.85;4.20;;;;;;;;;;5068687;28;20498;-54
2020/12/17 03:59:25;;;;;;;5.65;3.80;;;;;;;;;;5067983;28;20568;-53
2020/12/17 04:01:51;;;;;;;6.43;4.00;;;;;;;;;;5068099;28;20052;-54
2020/12/17 04:04:17;;;;;;;6.18;3.90;;;;;;;;;;5066710;28;20032;-53
2020/12/17 04:06:43;;;;;;;5.55;3.53;;;;;;;;;;5068033;28;20184;-53
2020/12/17 04:09:09;;;;;;;4.65;3.33;;;;;;;;;;5067951;28;20037;-53
2020/12/17 04:11:36;;;;;;;4.75;3.53;;;;;;;;;;5067929;28;20135;-54
2020/12/17 04:14:02;;;;;;;4.65;3.53;;;;;;;;;;5067886;28;20474;-54
2020/12/17 04:16:28;;;;;;;5.68;3.55;;;;;;;;;;5068533;28;20042;-53
2020/12/17 04:18:54;;;;;;;5.07;3.35;;;;;;;;;;5067805;28;20067;-54
2020/12/17 04:21:20;;;;;;;5.05;3.33;;;;;;;;;;5068010;28;20478;-56
2020/12/17 04:23:46;;;;;;;5.75;3.58;;;;;;;;;;5067530;28;20031;-56
2020/12/17 04:26:13;;;;;;;5.97;3.83;;;;;;;;;;5067442;28;20078;-56
2020/12/17 04:28:39;;;;;;;5.72;3.92;;;;;;;;;;5067307;28;20063;-56
2020/12/17 04:31:05;;;;;;;5.88;3.80;;;;;;;;;;5067511;28;20021;-56
2020/12/17 04:33:31;;;;;;;7.95;4.80;;;;;;;;;;5068252;28;20470;-56
2020/12/17 04:35:57;;;;;;;7.15;4.53;;;;;;;;;;5067203;28;20525;-56
2020/12/17 04:38:23;;;;;;;7.05;4.82;;;;;;;;;;5067403;28;20059;-56
2020/12/17 04:40:49;;;;;;;8.13;4.38;;;;;;;;;;5067409;28;20470;-56
2020/12/17 04:43:15;;;;;;;6.82;4.38;;;;;;;;;;5066739;28;20099;-56
2020/12/17 04:45:41;;;;;;;7.72;4.22;;;;;;;;;;5065633;28;20036;-57
2020/12/17 04:48:08;;;;;;;7.15;4.18;;;;;;;;;;5066998;28;20093;-57
2020/12/17 04:50:34;;;;;;;6.68;4.57;;;;;;;;;;5067226;28;20024;-56
2020/12/17 04:53:01;;;;;;;6.32;4.57;;;;;;;;;;5066342;28;20029;-56
2020/12/17 04:55:28;;;;;;;7.15;4.63;;;;;;;;;;5067261;28;20021;-56
2020/12/17 04:57:57;;;;;;;7.50;4.55;;;;;;;;;;5066548;28;20032;-56
2020/12/17 05:00:23;;;;;;;7.90;4.78;;;;;;;;;;5066846;28;20036;-56
2020/12/17 05:02:49;;;;;;;8.30;4.88;;;;;;;;;;5066891;28;20081;-55
2020/12/17 05:05:16;;;;;;;7.03;4.28;;;;;;;;;;5066331;28;20029;-55
2020/12/17 05:07:42;;;;;;;9.32;4.97;;;;;;;;;;5066840;28;20399;-56
2020/12/17 05:10:08;;;;;;;6.60;4.75;;;;;;;;;;5066643;28;20081;-55
2020/12/17 05:12:34;;;;;;;7.00;4.63;;;;;;;;;;5066777;28;20020;-57
2020/12/17 05:15:00;;;;;;;6.40;4.22;;;;;;;;;;5072590;28;20449;-56
2020/12/17 05:17:26;;;;;;;5.97;3.78;;;;;;;;;;5087055;28;20035;-56
2020/12/17 05:19:53;;;;;;;6.00;4.20;;;;;;;;;;5086977;28;20145;-56
2020/12/17 05:22:19;;;;;;;5.00;3.85;;;;;;;;;;5081140;28;20111;-56
2020/12/17 05:24:46;;;;;;;6.53;4.05;;;;;;;;;;5066475;28;20039;-54
2020/12/17 05:27:12;;;;;;;7.03;3.75;;;;;;;;;;5065405;28;20601;-53
2020/12/17 05:29:39;;;;;;;5.53;3.83;;;;;;;;;;5066793;28;20026;-54
2020/12/17 05:32:05;;;;;;;5.60;3.35;;;;;;;;;;5071932;28;20067;-54
2020/12/17 05:34:32;;;;;;;5.05;3.42;;;;;;;;;;5066846;28;20021;-53
2020/12/17 05:36:58;;;;;;;6.07;3.53;;;;;;;;;;5066473;28;20028;-53
2020/12/17 05:39:25;;;;;;;5.82;4.22;;;;;;;;;;5066816;28;20021;-53
2020/12/17 05:41:52;;;;;;;7.47;4.88;;;;;;;;;;5076397;28;20024;-53
2020/12/17 05:44:19;;;;;;;8.00;5.13;;;;;;;;;;5066396;28;20032;-53
2020/12/17 05:46:46;;;;;;;8.05;5.32;;;;;;;;;;5065899;28;20033;-53
2020/12/17 05:49:14;;;;;;;7.78;5.53;;;;;;;;;;5066346;28;20020;-54
2020/12/17 05:51:41;;;;;;;8.10;5.60;;;;;;;;;;5065598;28;20075;-54
2020/12/17 05:54:10;;;;;;;8.73;5.72;;;;;;;;;;5066205;28;20031;-53
2020/12/17 05:56:37;;;;;;;9.55;6.05;;;;;;;;;;5065946;28;20056;-54
2020/12/17 05:59:04;;;;;;;8.45;6.03;;;;;;;;;;5067057;28;20025;-53
2020/12/17 06:01:30;;;;;;;8.57;5.65;;;;;;;;;;5066696;28;20034;-54
2020/12/17 06:03:56;;;;;;;7.50;5.25;;;;;;;;;;5064548;28;20530;-52
2020/12/17 06:06:24;;;;;;;8.90;6.10;;;;;;;;;;5066054;28;20120;-53
2020/12/17 06:08:51;;;;;;;9.63;6.60;;;;;;;;;;5065931;28;20032;-53
2020/12/17 06:11:21;;;;;;;12.07;7.55;;;;;;;;;;5071170;28;20057;-54
2020/12/17 06:13:52;;;;;;;10.60;6.40;;;;;;;;;;5086171;28;20064;-53
2020/12/17 06:16:20;;;;;;;12.82;7.82;;;;;;;;;;5086243;28;20039;-53
2020/12/17 06:18:46;;;;;;;10.23;6.70;;;;;;;;;;5086356;28;20035;-54
2020/12/17 06:21:12;;;;;;;10.25;6.22;;;;;;;;;;5080613;28;20035;-54
2020/12/17 06:23:38;;;;;;;10.55;6.47;;;;;;;;;;5065750;28;20509;-54
2020/12/17 06:26:07;;;;;;;9.38;5.75;;;;;;;;;;5065825;28;20025;-54
2020/12/17 06:28:46;;;;;;;9.80;6.38;;;;;;;;;;5066056;28;20028;-54
2020/12/17 06:31:16;;;;;;;10.95;6.93;;;;;;;;;;5069676;28;20050;-54
2020/12/17 06:33:43;;;;;;;16.92;10.55;;;;;;;;;;5076945;28;20034;-54
2020/12/17 06:36:31;;;;;;;13.90;9.15;;;;;;;;;;5065860;28;20032;-54
2020/12/17 06:38:57;;;;;;;12.70;8.63;;;;;;;;;;5065871;28;20483;-53
2020/12/17 06:41:24;;;;;;;15.45;8.63;;;;;;;;;;5065756;28;20530;-54
2020/12/17 06:43:51;;;;;;;14.80;8.75;;;;;;;;;;5064768;28;20441;-53
2020/12/17 06:46:31;;;;;;;11.68;7.25;;;;;;;;;;5065677;28;20380;-54
2020/12/17 06:48:57;;;;;;;11.73;6.72;;;;;;;;;;5065904;28;20020;-55
2020/12/17 06:51:42;;;;;;;11.00;6.65;;;;;;;;;;5065359;28;20039;-54
2020/12/17 06:54:28;;;;;;;11.52;6.57;;;;;;;;;;5065872;28;20027;-52
2020/12/17 06:57:09;;;;;;;11.25;6.60;;;;;;;;;;5065567;28;20040;-53
2020/12/17 06:59:36;;;;;;;12.73;7.32;;;;;;;;;;5065220;28;20020;-53
2020/12/17 07:02:03;;;;;;;12.02;7.32;;;;;;;;;;5071002;28;20055;-53
2020/12/17 07:04:48;;;;;;;13.98;8.18;;;;;;;;;;5075506;28;20546;-54
2020/12/17 07:07:37;;;;;;;12.55;7.90;;;;;;;;;;5070528;28;20032;-54
2020/12/17 07:10:23;;;;;;;13.43;7.63;;;;;;;;;;5085580;28;20038;-54
2020/12/17 07:12:50;;;;;;;13.43;7.70;;;;;;;;;;5085369;28;20032;-54
2020/12/17 07:15:30;;;;;;;11.95;7.35;;;;;;;;;;5065390;28;20020;-52
2020/12/17 07:18:15;;;;;;;12.25;7.28;;;;;;;;;;5067379;28;20096;-53
2020/12/17 07:20:40;;;;;;;;;;;;;;;;;;5067692;28;20414;-53
2020/12/17 07:23:06;;;;;;;14.23;8.15;;;;;;;;;;5067221;28;19904;-53
2020/12/17 07:25:34;;;;;;;10.82;6.93;;;;;;;;;;5067612;28;20028;-53
2020/12/17 07:28:00;;;;;;;12.90;7.40;;;;;;;;;;5068060;28;20071;-54
2020/12/17 07:30:26;;;;;;;15.32;8.30;;;;;;;;;;5069900;28;20483;-54
2020/12/17 07:32:53;;;;;;;16.08;8.70;;;;;;;;;;5077391;28;20513;-54
2020/12/17 07:35:21;;;;;;;13.10;8.57;;;;;;;;;;5081395;28;20029;-53
2020/12/17 07:37:47;;;;;;;15.60;9.05;;;;;;;;;;5068746;28;20037;-53
2020/12/17 07:40:17;;;;;;;14.55;8.73;;;;;;;;;;5072861;28;20094;-54
2020/12/17 07:42:55;;;;;;;17.38;9.90;;;;;;;;;;5074703;28;20370;-53
2020/12/17 07:45:36;;;;;;;15.52;9.05;;;;;;;;;;5069416;28;20136;-54
2020/12/17 07:48:02;;;;;;;16.50;9.82;;;;;;;;;;5089113;28;20130;-55
2020/12/17 07:50:38;;;;;;;13.98;8.93;;;;;;;;;;5089311;28;20024;-57
2020/12/17 07:53:23;;;;;;;13.25;8.20;;;;;;;;;;5088117;28;20043;-57
2020/12/17 07:55:51;;;;;;;13.75;7.93;;;;;;;;;;5088322;28;20115;-56
2020/12/17 07:58:17;;;;;;;13.02;7.47;;;;;;;;;;5080480;28;20024;-57
2020/12/17 08:00:43;;;;;;;11.15;6.97;;;;;;;;;;5067594;28;20402;-57
2020/12/17 08:03:09;;;;;;;9.05;6.25;;;;;;;;;;5086983;28;20089;-57
2020/12/17 08:05:35;;;;;;;9.82;6.10;;;;;;;;;;5088005;28;20028;-57
2020/12/17 08:08:02;;;;;;;8.57;5.90;;;;;;;;;;5073702;28;20501;-56
2020/12/17 08:10:28;;;;;;;10.52;6.65;;;;;;;;;;5077527;28;20032;-57
2020/12/17 08:12:57;;;;;;;11.85;7.15;;;;;;;;;;5088086;28;20039;-56
2020/12/17 08:15:23;;;;;;;10.95;6.40;;;;;;;;;;5070672;28;20474;-57
2020/12/17 08:17:55;;;;;;;11.30;6.65;;;;;;;;;;5067788;28;20059;-57
2020/12/17 08:20:22;;;;;;;12.38;6.53;;;;;;;;;;5067765;28;20020;-57
2020/12/17 08:22:48;;;;;;;12.05;7.28;;;;;;;;;;5067713;28;20024;-57
2020/12/17 08:25:16;;;;;;;13.13;7.30;;;;;;;;;;5101757;28;20035;-57
2020/12/17 08:27:43;;;;;;;11.25;6.47;;;;;;;;;;5089330;28;20032;-57
2020/12/17 08:30:09;;;;;;;10.23;6.68;;;;;;;;;;5087808;28;20107;-57
2020/12/17 08:32:35;;;;;;;11.75;6.70;;;;;;;;;;5086278;28;20031;-57
2020/12/17 08:35:01;;;;;;;11.02;6.00;;;;;;;;;;5084600;28;20029;-57
2020/12/17 08:37:27;;;;;;;10.70;6.07;;;;;;;;;;5077111;28;20021;-57
2020/12/17 08:40:00;;;;;;;12.05;7.38;;;;;;;;;;5069761;28;20056;-57
2020/12/17 08:42:37;;;;;;;10.80;6.95;;;;;;;;;;5083520;28;20024;-56
2020/12/17 08:45:05;;;;;;;11.55;7.15;;;;;;;;;;5084345;28;20021;-57
2020/12/17 08:47:33;;;;;;;12.13;7.32;;;;;;;;;;5067711;28;20107;-57
2020/12/17 08:50:00;;;;;;;10.50;6.50;;;;;;;;;;5067927;28;20035;-57
2020/12/17 08:52:27;;;;;;;11.13;7.28;;;;;;;;;;5066761;28;20025;-57
2020/12/17 08:55:01;;;;;;;12.90;7.90;;;;;;;;;;5066274;28;20025;-56
2020/12/17 08:57:27;;;;;;;10.82;7.05;;;;;;;;;;5072546;28;20027;-55
2020/12/17 08:59:53;;;;;;;9.15;5.90;;;;;;;;;;5087227;28;20069;-56
2020/12/17 09:02:29;;;;;;;11.15;6.85;;;;;;;;;;5087570;28;20066;-56
2020/12/17 09:04:55;;;;;;;12.30;7.20;;;;;;;;;;5087040;28;20127;-56
2020/12/17 09:07:28;;;;;;;12.63;7.28;;;;;;;;;;5087273;28;20474;-56
2020/12/17 09:09:54;;;;;;;10.95;6.78;;;;;;;;;;5076833;28;20029;-56
2020/12/17 09:12:28;;;;;;;10.57;6.70;;;;;;;;;;5066692;28;20442;-55
2020/12/17 09:14:54;;;;;;;10.57;6.83;;;;;;;;;;5066606;28;20038;-55
2020/12/17 09:17:20;;;;;;;10.68;6.32;;;;;;;;;;5066736;28;20560;-56
2020/12/17 09:19:47;;;;;;;9.40;5.78;;;;;;;;;;5066026;28;20032;-55
2020/12/17 09:22:13;;;;;;;9.95;6.50;;;;;;;;;;5066933;28;20440;-56
2020/12/17 09:24:42;;;;;;;11.30;6.50;;;;;;;;;;5069712;28;20067;-56
2020/12/17 09:27:18;;;;;;;9.50;6.82;;;;;;;;;;5075889;28;20050;-56
2020/12/17 09:29:59;;;;;;;10.40;6.57;;;;;;;;;;5085271;28;20597;-56
2020/12/17 09:32:26;;;;;;;10.27;6.60;;;;;;;;;;5067050;28;20032;-56
2020/12/17 09:35:00;;;;;;;10.80;6.28;;;;;;;;;;5066150;28;20059;-56
2020/12/17 09:37:26;;;;;;;;;;;;;;;;;;5067005;28;20074;-56
2020/12/17 09:39:52;;;;;;;11.75;7.30;;;;;;;;;;5066011;28;19904;-56
2020/12/17 09:42:18;;;;;;;9.77;6.20;;;;;;;;;;5069769;28;20556;-56
2020/12/17 09:44:44;;;;;;;10.05;6.55;;;;;;;;;;5071229;28;20027;-56
2020/12/17 09:47:11;;;;;;;10.32;5.97;;;;;;;;;;5075076;28;20089;-56
2020/12/17 09:49:38;;;;;;;11.27;6.80;;;;;;;;;;5085673;28;20078;-56
2020/12/17 09:52:07;;;;;;;9.77;6.35;;;;;;;;;;5082516;28;20038;-56
2020/12/17 09:54:33;;;;;;;11.43;6.88;;;;;;;;;;5083741;28;20021;-56
2020/12/17 09:57:04;;;;;;;11.02;6.22;;;;;;;;;;5069052;28;20529;-56
2020/12/17 09:59:31;;;;;;;10.40;6.30;;;;;;;;;;5070285;28;20029;-55
2020/12/17 10:02:00;;;;;;;12.45;6.30;;;;;;;;;;5078835;28;20083;-56
2020/12/17 10:04:27;;;;;;;11.90;6.70;;;;;;;;;;5086267;28;20020;-56
2020/12/17 10:06:53;;;;;;;11.48;6.32;;;;;;;;;;5065745;28;20060;-56
2020/12/17 10:09:20;;;;;;;11.88;6.70;;;;;;;;;;5066269;28;20028;-56
2020/12/17 10:11:47;;;;;;;10.63;6.90;;;;;;;;;;5065964;28;20032;-56
2020/12/17 10:14:13;;;;;;;10.18;6.57;;;;;;;;;;5065763;28;20494;-56
2020/12/17 10:16:39;;;;;;;11.80;7.03;;;;;;;;;;5065870;28;20040;-56
2020/12/17 10:19:05;;;;;;;9.60;6.13;;;;;;;;;;5086445;28;20020;-56
2020/12/17 10:21:32;;;;;;;12.10;6.40;;;;;;;;;;5077398;28;20024;-56
2020/12/17 10:23:58;;;;;;;9.32;5.68;;;;;;;;;;5065818;28;20078;-56
2020/12/17 10:26:24;;;;;;;10.05;5.90;;;;;;;;;;5065244;28;20593;-56
2020/12/17 10:28:50;;;;;;;10.50;5.82;;;;;;;;;;5064246;28;20059;-55
2020/12/17 10:31:17;;;;;;;11.35;5.85;;;;;;;;;;5064308;28;20429;-56
2020/12/17 10:33:43;;;;;;;9.52;6.07;;;;;;;;;;5063944;28;20514;-56
2020/12/17 10:36:09;;;;;;;10.25;6.55;;;;;;;;;;5064227;28;20036;-55
2020/12/17 10:38:35;;;;;;;10.85;6.97;;;;;;;;;;5064162;28;20107;-56
2020/12/17 10:41:01;;;;;;;11.15;6.30;;;;;;;;;;5064878;28;20021;-55
2020/12/17 10:43:27;;;;;;;10.75;6.95;;;;;;;;;;5064104;28;20122;-55
2020/12/17 10:45:54;;;;;;;10.30;6.53;;;;;;;;;;5064190;28;20447;-56
2020/12/17 10:48:21;;;;;;;13.63;7.50;;;;;;;;;;5064163;28;20482;-54
2020/12/17 10:50:48;;;;;;;12.98;7.35;;;;;;;;;;5064800;28;20021;-56
2020/12/17 10:53:14;;;;;;;11.60;6.57;;;;;;;;;;5067592;28;20024;-56
2020/12/17 10:55:40;;;;;;;10.25;6.45;;;;;;;;;;5067522;28;20020;-56
2020/12/17 10:58:07;;;;;;;10.02;6.72;;;;;;;;;;5067719;28;20033;-56
2020/12/17 11:00:34;;;;;;;11.25;6.97;;;;;;;;;;5067268;28;20069;-55
2020/12/17 11:03:00;;;;;;;9.88;6.13;;;;;;;;;;5068352;28;20040;-55
2020/12/17 11:05:26;;;;;;;11.88;6.85;;;;;;;;;;5067684;28;20028;-55
2020/12/17 11:07:52;;;;;;;11.65;7.43;;;;;;;;;;5067384;28;20078;-56
2020/12/17 11:10:18;;;;;;;11.88;6.75;;;;;;;;;;5067717;28;20052;-56
2020/12/17 11:12:45;;;;;;;11.43;6.65;;;;;;;;;;5067056;28;20028;-55
2020/12/17 11:15:11;;;;;;;11.30;6.78;;;;;;;;;;5067447;28;20104;-56
2020/12/17 11:17:37;;;;;;;12.20;7.38;;;;;;;;;;5067110;28;20108;-56
2020/12/17 11:20:04;;;;;;;13.80;7.90;;;;;;;;;;5068377;28;20029;-56
2020/12/17 11:22:31;;;;;;;11.55;6.90;;;;;;;;;;5067706;28;20102;-56
2020/12/17 11:24:57;;;;;;;10.32;6.78;;;;;;;;;;5067294;28;20032;-56
2020/12/17 11:27:23;;;;;;;10.55;6.78;;;;;;;;;;5067144;28;20422;-56
2020/12/17 11:29:49;;;;;;;10.70;7.30;;;;;;;;;;5067107;28;20060;-56
2020/12/17 11:32:19;;;;;;;11.27;7.00;;;;;;;;;;5067245;28;20401;-55
2020/12/17 11:34:45;;;;;;;9.85;6.82;;;;;;;;;;5066810;28;20027;-56
2020/12/17 11:37:13;;;;;;;13.10;7.47;;;;;;;;;;5067105;28;20505;-55
2020/12/17 11:39:39;;;;;;;9.95;6.53;;;;;;;;;;5066722;28;20070;-55
2020/12/17 11:42:05;;;;;;;12.23;7.18;;;;;;;;;;5066999;28;20094;-56
2020/12/17 11:44:31;;;;;;;10.07;6.75;;;;;;;;;;5067216;28;20028;-55
2020/12/17 11:46:57;;;;;;;12.05;7.00;;;;;;;;;;5066691;28;20086;-56
2020/12/17 11:49:23;;;;;;;11.32;7.05;;;;;;;;;;5067034;28;20021;-55
2020/12/17 11:51:52;;;;;;;8.80;5.82;;;;;;;;;;5066605;28;20107;-56
2020/12/17 11:54:19;;;;;;;9.70;6.43;;;;;;;;;;5066920;28;20024;-55
2020/12/17 11:56:49;;;;;;;12.27;6.60;;;;;;;;;;5066112;28;20029;-55
2020/12/17 11:59:16;;;;;;;9.00;5.60;;;;;;;;;;5066457;28;20021;-56
2020/12/17 12:01:42;;;;;;;9.80;6.30;;;;;;;;;;5065877;28;20036;-55
2020/12/17 12:04:09;;;;;;;10.50;6.93;;;;;;;;;;5070119;28;20028;-56
2020/12/17 12:06:35;;;;;;;12.35;6.38;;;;;;;;;;5082603;28;20032;-56
2020/12/17 12:09:01;;;;;;;9.88;6.63;;;;;;;;;;5087061;28;20171;-55
2020/12/17 12:11:27;;;;;;;14.27;8.52;;;;;;;;;;5086844;28;20077;-56
2020/12/17 12:13:54;;;;;;;12.60;7.78;;;;;;;;;;5088098;28;20023;-56
2020/12/17 12:16:22;;;;;;;12.88;7.45;;;;;;;;;;5088183;28;20047;-56
2020/12/17 12:18:48;;;;;;;13.85;7.75;;;;;;;;;;5082860;28;20127;-54
2020/12/17 12:21:14;;;;;;;12.95;6.65;;;;;;;;;;5066530;28;20056;-54
2020/12/17 12:23:44;;;;;;;9.00;5.30;;;;;;;;;;5073879;28;20024;-54
2020/12/17 12:26:10;;;;;;;7.63;5.18;;;;;;;;;;5087437;28;20549;-50
2020/12/17 12:28:38;;;;;;;9.20;5.80;;;;;;;;;;5080206;28;20071;-53
2020/12/17 12:31:04;;;;;;;8.57;5.47;;;;;;;;;;5066894;28;20031;-52
2020/12/17 12:33:31;;;;;;;9.70;6.18;;;;;;;;;;5082217;28;20100;-54
2020/12/17 12:35:58;;;;;;;10.00;6.25;;;;;;;;;;5086055;28;20044;-54
2020/12/17 12:38:24;;;;;;;11.13;5.93;;;;;;;;;;5084529;28;20074;-53
2020/12/17 12:40:50;;;;;;;9.20;6.22;;;;;;;;;;5075079;28;20027;-51
2020/12/17 12:43:16;;;;;;;6.88;5.10;;;;;;;;;;5087262;28;20032;-50
2020/12/17 12:45:43;;;;;;;8.07;4.63;;;;;;;;;;5069170;28;20399;-49
2020/12/17 12:48:09;;;;;;;8.98;5.25;;;;;;;;;;5078631;28;20093;-51
2020/12/17 12:50:35;;;;;;;8.75;5.80;;;;;;;;;;5085040;28;20105;-50
2020/12/17 12:53:01;;;;;;;10.63;6.57;;;;;;;;;;5065225;28;20507;-50
2020/12/17 12:55:28;;;;;;;11.10;6.38;;;;;;;;;;5064645;28;20509;-53
2020/12/17 12:57:55;;;;;;;10.77;5.85;;;;;;;;;;5064541;28;20032;-51
2020/12/17 13:00:21;;;;;;;8.98;5.25;;;;;;;;;;5064676;28;20028;-54
2020/12/17 13:02:47;;;;;;;9.07;5.40;;;;;;;;;;5064603;28;20028;-54
2020/12/17 13:05:14;;;;;;;10.60;5.80;;;;;;;;;;5084791;28;20436;-54
2020/12/17 13:07:41;;;;;;;10.00;6.45;;;;;;;;;;5084641;28;20123;-54
2020/12/17 13:10:07;;;;;;;11.00;6.03;;;;;;;;;;5080337;28;20046;-54
2020/12/17 13:12:33;;;;;;;10.45;5.80;;;;;;;;;;5077904;28;20027;-54
2020/12/17 13:14:59;;;;;;;9.10;5.45;;;;;;;;;;5072031;28;20087;-55
2020/12/17 13:17:25;;;;;;;9.05;6.15;;;;;;;;;;5084005;28;20517;-54
2020/12/17 13:19:52;;;;;;;9.93;5.90;;;;;;;;;;5078945;28;20033;-52
2020/12/17 13:22:18;;;;;;;11.32;6.30;;;;;;;;;;5064533;28;20024;-55
2020/12/17 13:24:44;;;;;;;7.95;5.55;;;;;;;;;;5062042;28;20033;-54
2020/12/17 13:27:11;;;;;;;9.25;5.68;;;;;;;;;;5064458;28;20024;-54
2020/12/17 13:29:37;;;;;;;10.45;5.43;;;;;;;;;;5077609;28;20020;-54
2020/12/17 13:32:02;;;;;;;9.32;5.72;;;;;;;;;;5078069;28;20094;-54
2020/12/17 13:34:28;;;;;;;9.70;5.60;;;;;;;;;;5067397;28;20091;-56
2020/12/17 13:36:56;;;;;;;9.90;5.75;;;;;;;;;;5078902;28;20050;-56
2020/12/17 13:39:22;;;;;;;10.07;6.20;;;;;;;;;;5082994;28;20677;-55
2020/12/17 13:41:51;;;;;;;9.88;6.07;;;;;;;;;;5070513;28;20508;-55
2020/12/17 13:44:18;;;;;;;8.85;5.90;;;;;;;;;;5077439;28;20575;-55
2020/12/17 13:46:44;;;;;;;9.05;6.13;;;;;;;;;;5074902;28;20032;-54
2020/12/17 13:49:10;;;;;;;9.82;5.88;;;;;;;;;;5084317;28;20028;-55
2020/12/17 13:51:36;;;;;;;7.60;5.35;;;;;;;;;;5066062;28;20506;-56
2020/12/17 13:54:02;;;;;;;10.25;5.75;;;;;;;;;;5064565;28;20033;-54
2020/12/17 13:56:28;;;;;;;9.70;6.10;;;;;;;;;;5063997;28;20031;-56
2020/12/17 13:58:55;;;;;;;9.00;5.90;;;;;;;;;;5063419;28;20447;-55
2020/12/17 14:01:21;;;;;;;8.85;5.38;;;;;;;;;;5063031;28;20025;-55
2020/12/17 14:03:48;;;;;;;8.13;5.30;;;;;;;;;;5064075;28;20036;-55
2020/12/17 14:06:31;;;;;;;10.63;5.80;;;;;;;;;;5072533;28;20023;-54
2020/12/17 14:08:57;;;;;;;9.32;6.00;;;;;;;;;;5083818;28;20022;-56
2020/12/17 14:11:24;;;;;;;8.32;5.43;;;;;;;;;;5069262;28;20040;-56
2020/12/17 14:13:50;;;;;;;10.80;6.18;;;;;;;;;;5063821;28;20025;-55
2020/12/17 14:16:17;;;;;;;8.23;5.30;;;;;;;;;;5063941;28;20438;-55
2020/12/17 14:18:50;;;;;;;11.60;6.55;;;;;;;;;;5063500;28;20503;-56
2020/12/17 14:21:22;;;;;;;9.13;5.63;;;;;;;;;;5063428;28;20717;-55
2020/12/17 14:23:48;;;;;;;9.27;6.18;;;;;;;;;;5063446;28;20020;-55
2020/12/17 14:26:20;;;;;;;11.00;6.35;;;;;;;;;;5066596;28;20108;-56
2020/12/17 14:28:47;;;;;;;8.95;5.72;;;;;;;;;;5071021;28;20521;-55
2020/12/17 14:31:13;;;;;;;7.57;5.32;;;;;;;;;;5067894;28;20028;-55
2020/12/17 14:33:40;;;;;;;7.57;5.43;;;;;;;;;;5074431;28;20040;-53
2020/12/17 14:36:06;;;;;;;7.78;5.05;;;;;;;;;;5083168;28;20028;-55
2020/12/17 14:38:35;;;;;;;8.27;4.95;;;;;;;;;;5067303;28;20321;-55